Time;durP1;ratioP1;P1;durP2;ratioP2;P2;SDS_P1;SDS_P2;PMS_P1;PMS_P2;Temp;Humidity;BMP_temperature;BMP_pressure;BME280_temperature;BME280_humidity;BME280_pressure;Samples;Min_cycle;Max_cycle;Signal;HPM_P1;HPM_P2
2023/12/17 00:02:10;;;;;;;24.10;16.67;;;1.70;94.50;;;0.87;99.54;100250.53;5018015;28;20459;-70
2023/12/17 00:04:37;;;;;;;25.53;16.33;;;1.70;94.40;;;0.83;99.69;100248.06;5004303;28;20487;-72
2023/12/17 00:07:05;;;;;;;26.50;16.80;;;1.70;94.70;;;0.75;100.00;100258.34;5013848;28;20892;-72
2023/12/17 00:09:35;;;;;;;25.40;16.83;;;1.70;94.50;;;0.71;100.00;100254.16;5012496;28;20459;-75
2023/12/17 00:12:08;;;;;;;22.03;16.20;;;1.60;94.60;;;0.52;100.00;100226.03;4994415;28;20536;-73
2023/12/17 00:14:40;;;;;;;22.33;15.00;;;1.60;94.90;;;0.68;100.00;100254.34;5020314;28;20866;-71
2023/12/17 00:17:08;;;;;;;21.20;14.40;;;1.50;94.80;;;0.78;100.00;100251.97;5025731;28;20452;-72
2023/12/17 00:19:36;;;;;;;32.73;18.17;;;1.50;95.40;;;0.79;100.00;100249.19;4999023;28;20472;-71
2023/12/17 00:22:03;;;;;;;26.33;17.23;;;1.50;95.80;;;0.71;100.00;100248.84;5020252;28;20462;-71
2023/12/17 00:24:30;;;;;;;22.23;15.87;;;1.50;95.30;;;0.76;100.00;100244.09;4998790;28;20460;-71
2023/12/17 00:26:59;;;;;;;26.50;17.53;;;1.50;96.10;;;0.91;100.00;100238.72;5014415;28;20457;-72
2023/12/17 00:29:26;;;;;;;26.33;16.63;;;1.60;96.80;;;0.80;100.00;100248.25;5022442;28;20458;-70
2023/12/17 00:31:53;;;;;;;23.97;16.43;;;1.60;96.60;;;0.98;100.00;100248.00;5014225;28;20720;-72
2023/12/17 00:34:21;;;;;;;22.50;15.10;;;1.60;97.40;;;0.97;100.00;100238.31;5024851;28;20474;-72
2023/12/17 00:36:48;;;;;;;22.30;17.10;;;1.70;97.50;;;1.02;100.00;100249.53;5022784;28;20458;-71
2023/12/17 00:39:16;;;;;;;24.17;16.90;;;1.80;97.70;;;0.99;100.00;100260.41;5020891;28;20469;-71
2023/12/17 00:41:43;;;;;;;24.73;16.80;;;1.80;97.30;;;0.90;100.00;100267.13;5012411;28;20956;-70
2023/12/17 00:44:11;;;;;;;25.60;17.70;;;1.80;96.60;;;0.87;100.00;100266.50;5022019;28;21039;-71
2023/12/17 00:46:40;;;;;;;23.87;16.90;;;1.80;96.20;;;0.80;100.00;100264.22;5012233;28;20899;-71
2023/12/17 00:49:07;;;;;;;22.87;15.60;;;1.70;95.70;;;0.63;100.00;100248.47;5007436;28;20462;-70
2023/12/17 00:51:35;;;;;;;29.33;16.37;;;1.60;95.30;;;0.61;100.00;100245.06;5025749;28;20435;-71
2023/12/17 00:54:03;;;;;;;26.57;16.40;;;1.60;95.50;;;0.67;100.00;100261.47;5019440;28;20456;-71
2023/12/17 00:56:31;;;;;;;23.53;16.40;;;1.50;95.50;;;0.49;100.00;100255.50;5007787;28;20477;-72
2023/12/17 00:58:58;;;;;;;23.97;16.83;;;1.50;95.50;;;0.53;100.00;100250.84;5019750;28;20516;-72
2023/12/17 01:01:28;;;;;;;28.03;16.63;;;1.40;96.10;;;0.45;100.00;100240.69;5011328;28;20484;-71
2023/12/17 01:03:55;;;;;;;23.07;15.43;;;1.40;96.00;;;0.34;100.00;100237.84;4999279;28;20806;-70
2023/12/17 01:06:23;;;;;;;24.43;15.97;;;1.30;96.00;;;0.36;100.00;100244.78;5018712;28;21109;-70
2023/12/17 01:08:50;;;;;;;24.53;17.20;;;1.20;96.50;;;0.41;100.00;100239.19;4999694;28;20463;-71
2023/12/17 01:11:18;;;;;;;21.20;15.47;;;1.30;97.40;;;0.37;100.00;100229.66;5009839;28;20456;-71
2023/12/17 01:13:45;;;;;;;23.83;17.07;;;1.30;97.50;;;-0.07;100.00;100176.50;5015196;28;21001;-70
2023/12/17 01:16:12;;;;;;;21.03;16.37;;;1.30;97.90;;;0.49;100.00;100252.84;5014872;28;20469;-70
2023/12/17 01:18:42;;;;;;;21.93;16.13;;;1.30;97.90;;;0.46;100.00;100258.34;5019031;28;20466;-73
2023/12/17 01:21:11;;;;;;;31.03;15.97;;;1.30;97.90;;;0.44;100.00;100251.41;4987119;28;20465;-71
2023/12/17 01:23:39;;;;;;;28.20;16.80;;;1.30;98.30;;;0.49;100.00;100252.00;5013609;28;20458;-71
2023/12/17 01:26:06;;;;;;;24.27;18.03;;;1.30;98.40;;;0.35;100.00;100239.53;4995253;28;20889;-72
2023/12/17 01:28:34;;;;;;;28.20;18.87;;;1.30;98.10;;;0.39;100.00;100257.03;4999786;28;20544;-70
2023/12/17 01:31:02;;;;;;;23.07;16.83;;;1.20;98.60;;;0.38;100.00;100260.63;5002765;28;20456;-70
2023/12/17 01:33:29;;;;;;;22.20;16.77;;;1.20;98.60;;;0.40;100.00;100243.63;5010718;28;20447;-71
2023/12/17 01:35:58;;;;;;;23.90;16.87;;;1.20;99.30;;;0.43;100.00;100245.25;5019385;28;20580;-71
2023/12/17 01:38:25;;;;;;;25.23;16.60;;;1.30;99.50;;;0.40;100.00;100240.13;5007673;28;20522;-71
2023/12/17 01:40:52;;;;;;;30.10;16.00;;;1.20;99.50;;;0.42;100.00;100247.03;5004504;28;20452;-70
2023/12/17 01:43:21;;;;;;;28.83;18.40;;;1.30;99.90;;;0.50;100.00;100243.06;5009598;28;20520;-71
2023/12/17 01:45:48;;;;;;;28.73;18.40;;;1.30;99.80;;;0.48;100.00;100251.13;5002278;28;20452;-70
2023/12/17 01:48:16;;;;;;;24.80;17.30;;;1.30;99.40;;;0.52;100.00;100265.09;5019163;28;20469;-71
2023/12/17 01:50:44;;;;;;;27.57;16.60;;;1.20;99.10;;;0.49;100.00;100258.16;5026332;28;20482;-71
2023/12/17 01:53:14;;;;;;;25.10;16.20;;;1.20;99.20;;;0.30;100.00;100241.66;5020690;28;20461;-70
2023/12/17 01:55:42;;;;;;;23.13;16.30;;;1.20;99.00;;;0.46;100.00;100269.00;5015274;28;20575;-71
2023/12/17 01:58:10;;;;;;;24.80;16.83;;;1.20;99.30;;;0.46;100.00;100281.47;5019137;28;21119;-70
2023/12/17 02:00:37;;;;;;;22.73;16.00;;;1.20;99.80;;;0.44;100.00;100281.53;5020971;28;20530;-71
2023/12/17 02:03:05;;;;;;;20.80;16.00;;;1.20;99.60;;;0.24;100.00;100275.66;5014041;28;20464;-70
2023/12/17 02:05:33;;;;;;;24.53;18.70;;;1.00;98.50;;;0.33;100.00;100274.22;5018460;28;20511;-70
2023/12/17 02:08:00;;;;;;;20.53;16.33;;;1.00;99.30;;;0.27;100.00;100275.47;5017410;28;20476;-70
2023/12/17 02:10:29;;;;;;;25.13;16.10;;;1.00;99.50;;;0.30;100.00;100265.56;5025947;28;20451;-71
2023/12/17 02:12:59;;;;;;;22.80;16.80;;;1.00;99.90;;;0.20;100.00;100270.59;5024134;28;20547;-71
2023/12/17 02:15:26;;;;;;;22.40;15.93;;;1.00;99.90;;;0.23;100.00;100275.72;5010889;28;20479;-69
2023/12/17 02:17:54;;;;;;;25.30;17.93;;;0.90;99.90;;;0.17;100.00;100263.66;5020784;28;20474;-71
2023/12/17 02:20:22;;;;;;;26.80;17.70;;;1.00;99.90;;;0.22;100.00;100261.56;5023733;28;20458;-70
2023/12/17 02:22:54;;;;;;;24.27;17.57;;;1.00;99.90;;;0.24;100.00;100254.38;5022794;28;20463;-71
2023/12/17 02:25:24;;;;;;;25.40;16.90;;;1.10;99.90;;;0.16;100.00;100255.81;5020568;28;20947;-71
2023/12/17 02:27:51;;;;;;;25.90;16.83;;;1.10;99.90;;;0.11;100.00;100245.44;5023026;28;20460;-70
2023/12/17 02:30:19;;;;;;;25.47;15.60;;;1.10;99.90;;;0.07;100.00;100246.56;5023652;28;20456;-70
2023/12/17 02:32:46;;;;;;;22.83;17.10;;;1.00;99.90;;;0.07;100.00;100239.44;5018569;28;20436;-70
2023/12/17 02:35:13;;;;;;;27.67;17.97;;;1.10;99.90;;;0.10;100.00;100236.59;5026105;28;20486;-71
2023/12/17 02:37:41;;;;;;;28.67;16.40;;;1.00;99.80;;;0.10;100.00;100243.72;5002965;28;21556;-69
2023/12/17 02:40:10;;;;;;;25.20;16.10;;;1.00;99.90;;;0.05;100.00;100238.69;5002368;28;20456;-70
2023/12/17 02:42:38;;;;;;;24.13;17.23;;;0.90;99.90;;;0.06;100.00;100243.06;5020028;28;20461;-70
2023/12/17 02:45:10;;;;;;;23.63;16.43;;;0.90;99.80;;;0.05;100.00;100244.00;5015257;28;20461;-71
2023/12/17 02:47:37;;;;;;;23.03;16.50;;;0.90;99.90;;;0.02;100.00;100251.31;5002869;28;20901;-70
2023/12/17 02:50:06;;;;;;;23.90;16.97;;;0.90;99.90;;;-0.03;100.00;100233.84;5026088;28;20447;-71
2023/12/17 02:52:34;;;;;;;26.67;15.90;;;0.90;99.90;;;-0.03;100.00;100233.84;5002020;28;20461;-70
2023/12/17 02:55:01;;;;;;;39.23;18.20;;;0.90;99.90;;;-0.06;100.00;100220.75;5020752;28;20609;-70
2023/12/17 02:57:29;;;;;;;25.03;15.93;;;0.90;99.90;;;-0.04;100.00;100223.28;5013722;28;20554;-70
2023/12/17 02:59:57;;;;;;;24.40;17.10;;;0.90;99.90;;;-0.13;100.00;100215.88;5003635;28;20444;-70
2023/12/17 03:02:26;;;;;;;23.07;16.70;;;0.90;99.90;;;-0.23;100.00;100212.91;5018240;28;20469;-70
2023/12/17 03:04:53;;;;;;;25.20;17.13;;;0.80;99.90;;;-0.20;100.00;100218.06;4996897;28;20461;-70
2023/12/17 03:07:21;;;;;;;27.10;16.67;;;0.80;99.90;;;-0.30;100.00;100212.44;4995220;28;20457;-70
2023/12/17 03:09:49;;;;;;;26.70;16.47;;;0.70;99.90;;;-0.27;100.00;100206.06;4994363;28;20459;-69
2023/12/17 03:12:16;;;;;;;23.57;17.17;;;0.70;99.90;;;-0.33;100.00;100212.59;4997667;28;20481;-71
2023/12/17 03:14:44;;;;;;;23.97;16.60;;;0.70;99.90;;;-0.38;100.00;100223.53;4996096;28;20463;-70
2023/12/17 03:17:13;;;;;;;32.93;17.50;;;0.70;99.90;;;-0.30;100.00;100217.75;5015527;28;20716;-71
2023/12/17 03:19:40;;;;;;;24.90;16.57;;;0.70;99.90;;;-0.27;100.00;100203.41;5014939;28;20559;-71
2023/12/17 03:22:08;;;;;;;27.27;16.70;;;0.60;99.90;;;-0.29;100.00;100199.06;5017479;28;20546;-72
2023/12/17 03:24:35;;;;;;;26.20;15.17;;;0.60;99.90;;;-0.37;100.00;100196.00;5015920;28;20554;-70
2023/12/17 03:27:02;;;;;;;23.53;16.50;;;0.60;99.90;;;-0.37;100.00;100196.00;5022515;28;20468;-72
2023/12/17 03:29:30;;;;;;;22.73;16.20;;;0.60;99.90;;;-0.41;100.00;100189.16;5021392;28;21279;-71
2023/12/17 03:31:58;;;;;;;20.07;14.80;;;0.60;99.90;;;-0.48;100.00;100183.34;5017344;28;20469;-70
2023/12/17 03:34:27;;;;;;;26.60;16.80;;;0.50;99.90;;;-0.47;100.00;100189.53;5022984;28;21050;-70
2023/12/17 03:36:54;;;;;;;29.43;16.77;;;0.50;99.90;;;-0.48;100.00;100187.81;4998452;28;20481;-71
2023/12/17 03:39:21;;;;;;;21.50;15.27;;;0.50;99.90;;;-0.44;100.00;100189.34;5022721;28;20468;-70
2023/12/17 03:41:49;;;;;;;23.43;15.80;;;0.50;99.90;;;-0.47;100.00;100179.75;5001848;28;20867;-70
2023/12/17 03:44:16;;;;;;;26.20;16.53;;;0.50;99.90;;;-0.41;100.00;100181.19;5017446;28;20460;-72
2023/12/17 03:46:44;;;;;;;23.57;15.57;;;0.50;99.90;;;-0.40;100.00;100188.19;5020056;28;20955;-71
2023/12/17 03:49:12;;;;;;;28.87;16.97;;;0.50;99.90;;;-0.43;100.00;100191.03;5021171;28;20454;-71
2023/12/17 03:51:40;;;;;;;28.27;17.13;;;0.50;99.90;;;-0.40;100.00;100190.84;5023803;28;20470;-70
2023/12/17 03:54:07;;;;;;;21.73;16.00;;;0.50;99.90;;;-0.49;100.00;100180.81;5019566;28;20468;-71
2023/12/17 03:56:35;;;;;;;26.60;15.80;;;0.40;99.90;;;-0.60;100.00;100179.63;5020511;28;20639;-70
2023/12/17 03:59:03;;;;;;;24.10;16.23;;;0.50;99.90;;;-0.57;100.00;100189.22;5021193;28;20465;-71
2023/12/17 04:01:30;;;;;;;25.33;16.80;;;0.40;99.90;;;-0.55;100.00;100194.44;5016796;28;20470;-71
2023/12/17 04:03:57;;;;;;;24.03;16.10;;;0.40;99.90;;;-0.57;100.00;100190.06;4999328;28;20980;-72
2023/12/17 04:06:25;;;;;;;26.90;16.90;;;0.40;99.90;;;-0.57;100.00;100205.16;5016431;28;20466;-71
2023/12/17 04:08:54;;;;;;;27.90;17.20;;;0.40;99.90;;;-0.63;100.00;100208.16;5015008;28;20514;-72
2023/12/17 04:11:21;;;;;;;23.03;17.20;;;0.40;99.90;;;-0.61;100.00;100199.16;5011906;28;20463;-71
2023/12/17 04:13:49;;;;;;;26.43;17.90;;;0.40;99.90;;;-0.53;100.00;100211.13;5020380;28;20473;-70
2023/12/17 04:16:16;;;;;;;28.03;17.80;;;0.40;99.90;;;-0.59;100.00;100213.19;5014461;28;20504;-73
2023/12/17 04:18:43;;;;;;;23.87;15.50;;;0.40;99.90;;;-0.52;100.00;100212.84;4992709;28;21059;-72
2023/12/17 04:21:11;;;;;;;22.30;16.53;;;0.30;99.90;;;-0.71;100.00;100203.28;5019288;28;20547;-70
2023/12/17 04:23:38;;;;;;;24.33;16.20;;;0.30;99.90;;;-0.82;100.00;100185.34;5016025;28;20464;-71
2023/12/17 04:26:07;;;;;;;20.80;16.43;;;0.30;99.90;;;-0.70;100.00;100199.69;5018717;28;20571;-71
2023/12/17 04:28:35;;;;;;;25.23;15.90;;;0.20;99.90;;;-0.78;100.00;100213.41;5004277;28;21321;-70
2023/12/17 04:31:02;;;;;;;24.93;16.43;;;0.20;99.90;;;-0.74;100.00;100198.16;5018430;28;20507;-71
2023/12/17 04:33:29;;;;;;;30.40;17.80;;;0.30;99.90;;;-0.69;100.00;100201.41;5012196;28;20542;-71
2023/12/17 04:35:58;;;;;;;23.97;16.77;;;0.30;99.90;;;-0.70;100.00;100189.06;5014007;28;21057;-71
2023/12/17 04:38:25;;;;;;;25.10;16.47;;;0.30;99.90;;;-0.78;100.00;100168.28;5021347;28;20470;-72
2023/12/17 04:40:53;;;;;;;26.00;16.50;;;0.30;99.90;;;-0.65;100.00;100194.97;5019540;28;20477;-71
2023/12/17 04:43:23;;;;;;;26.40;17.50;;;0.30;99.90;;;-0.72;100.00;100185.66;5019077;28;20480;-70
2023/12/17 04:45:50;;;;;;;26.00;16.73;;;0.30;99.90;;;-0.59;100.00;100191.13;5021178;28;20525;-70
2023/12/17 04:48:18;;;;;;;23.03;16.40;;;0.30;99.90;;;-0.59;100.00;100189.31;5002294;28;20456;-72
2023/12/17 04:50:45;;;;;;;26.17;16.90;;;0.30;99.90;;;-0.64;100.00;100188.72;5015042;28;20464;-70
2023/12/17 04:53:12;;;;;;;26.07;17.10;;;0.30;99.90;;;-0.64;100.00;100188.72;5004204;28;20457;-71
2023/12/17 04:55:40;;;;;;;28.20;17.10;;;0.30;99.90;;;-0.71;100.00;100190.00;5001166;28;20522;-70
2023/12/17 04:58:08;;;;;;;29.60;17.10;;;0.20;99.90;;;-0.68;100.00;100195.16;5023710;28;20519;-70
2023/12/17 05:00:36;;;;;;;23.70;16.10;;;0.20;99.90;;;-0.72;100.00;100191.84;5017788;28;21013;-70
2023/12/17 05:03:03;;;;;;;26.30;17.70;;;0.20;99.90;;;-0.75;100.00;100186.72;5016270;28;20459;-70
2023/12/17 05:05:31;;;;;;;23.23;16.27;;;0.20;99.90;;;-0.75;100.00;100191.16;5019612;28;20462;-70
2023/12/17 05:08:01;;;;;;;28.63;17.37;;;0.20;99.90;;;-0.71;100.00;100203.28;5002448;28;20531;-69
2023/12/17 05:10:30;;;;;;;23.17;16.53;;;0.20;99.90;;;-0.62;100.00;100208.06;5025558;28;21317;-71
2023/12/17 05:12:57;;;;;;;26.57;16.90;;;0.30;99.90;;;-0.77;100.00;100198.34;5018330;28;20517;-70
2023/12/17 05:15:25;;;;;;;24.07;15.83;;;0.20;99.90;;;-0.74;100.00;100198.16;5015765;28;20493;-71
2023/12/17 05:17:53;;;;;;;28.40;17.50;;;0.30;99.90;;;-0.71;100.00;100195.31;5018494;28;20479;-71
2023/12/17 05:20:21;;;;;;;32.83;17.33;;;0.20;99.90;;;-0.70;100.00;100199.69;5022489;28;20538;-71
2023/12/17 05:22:49;;;;;;;23.73;16.70;;;0.20;99.90;;;-0.71;100.00;100195.31;5014763;28;20471;-71
2023/12/17 05:25:16;;;;;;;25.10;16.43;;;0.10;99.90;;;-0.70;100.00;100194.38;5000832;28;20515;-71
2023/12/17 05:27:44;;;;;;;26.50;16.27;;;0.10;99.90;;;-0.66;100.00;100187.09;5004476;28;20464;-70
2023/12/17 05:30:12;;;;;;;24.33;16.23;;;0.20;99.90;;;-0.77;100.00;100179.75;5019781;28;20458;-69
2023/12/17 05:32:40;;;;;;;28.13;17.57;;;0.20;99.90;;;-0.75;100.00;100175.22;4999880;28;20733;-70
2023/12/17 05:35:10;;;;;;;25.50;16.77;;;0.20;99.90;;;-0.70;100.00;100183.75;5025126;28;20465;-70
2023/12/17 05:37:37;;;;;;;28.70;17.67;;;0.20;99.90;;;-0.75;100.00;100185.84;5008809;28;20500;-70
2023/12/17 05:40:06;;;;;;;26.03;17.07;;;0.20;99.90;;;-0.78;100.00;100191.34;5019418;28;20498;-71
2023/12/17 05:42:34;;;;;;;26.33;16.90;;;0.10;99.90;;;-0.74;100.00;100187.53;5022448;28;20518;-70
2023/12/17 05:45:01;;;;;;;28.00;18.00;;;0.10;99.90;;;-0.75;100.00;100186.72;5005044;28;20965;-70
2023/12/17 05:47:30;;;;;;;28.30;17.07;;;0.10;99.90;;;-0.79;100.00;100182.50;5016196;28;20463;-70
2023/12/17 05:49:58;;;;;;;24.83;17.97;;;0.10;99.90;;;-0.72;100.00;100185.66;5014868;28;20464;-71
2023/12/17 05:52:26;;;;;;;28.03;18.47;;;0.10;99.90;;;-0.73;100.00;100168.00;5005702;28;20469;-71
2023/12/17 05:54:53;;;;;;;25.97;17.50;;;0.20;99.90;;;-0.72;100.00;100181.22;5024076;28;20979;-71
2023/12/17 05:57:21;;;;;;;25.47;17.30;;;0.10;99.90;;;-0.70;100.00;100178.44;5018011;28;20490;-71
2023/12/17 05:59:49;;;;;;;26.03;18.10;;;0.20;99.90;;;-0.70;100.00;100175.78;5006419;28;20454;-70
2023/12/17 06:02:16;;;;;;;24.30;15.80;;;0.10;99.90;;;-0.64;100.00;100175.44;5003404;28;20450;-71
2023/12/17 06:04:43;;;;;;;23.53;17.33;;;0.10;99.90;;;-0.76;100.00;100173.50;5024592;28;20546;-71
2023/12/17 06:07:11;;;;;;;29.10;17.33;;;0.10;99.90;;;-0.68;100.00;100179.25;5016948;28;20491;-71
2023/12/17 06:09:40;;;;;;;28.90;17.70;;;0.10;99.90;;;-0.66;100.00;100173.81;5021360;28;20461;-70
2023/12/17 06:12:08;;;;;;;25.80;17.20;;;0.20;99.90;;;-0.64;100.00;100179.88;5023067;28;20493;-70
2023/12/17 06:14:35;;;;;;;25.87;16.97;;;0.10;99.90;;;-0.64;100.00;100172.78;5016493;28;20484;-71
2023/12/17 06:17:02;;;;;;;25.57;16.57;;;0.20;99.90;;;-0.66;100.00;100158.75;5021985;28;20529;-71
2023/12/17 06:19:30;;;;;;;23.33;16.23;;;0.20;99.90;;;-0.70;100.00;100154.56;5018196;28;20451;-71
2023/12/17 06:21:59;;;;;;;23.47;17.10;;;0.30;99.90;;;-0.59;100.00;100170.72;5019233;28;20467;-71
2023/12/17 06:24:27;;;;;;;25.77;16.03;;;0.30;99.90;;;-0.57;100.00;100171.47;5020448;28;20526;-70
2023/12/17 06:26:56;;;;;;;24.77;16.77;;;0.30;99.90;;;-0.64;100.00;100167.47;5026480;28;20460;-71
2023/12/17 06:29:23;;;;;;;20.30;15.40;;;0.30;99.90;;;-0.63;100.00;100163.88;5022574;28;20459;-71
2023/12/17 06:31:51;;;;;;;23.07;15.03;;;0.30;99.90;;;-0.70;100.00;100162.50;5025752;28;20518;-70
2023/12/17 06:34:18;;;;;;;26.83;16.83;;;0.30;99.90;;;-0.81;100.00;100176.44;5006722;28;20897;-71
2023/12/17 06:36:46;;;;;;;28.60;16.73;;;0.30;99.90;;;-0.82;100.00;100169.41;4999251;28;20525;-70
2023/12/17 06:39:14;;;;;;;27.93;18.50;;;0.20;99.90;;;-0.77;100.00;100185.06;5022264;28;20452;-70
2023/12/17 06:41:44;;;;;;;22.60;16.57;;;0.20;99.90;;;-0.75;100.00;100180.53;5012984;28;20498;-71
2023/12/17 06:44:13;;;;;;;33.07;18.90;;;0.20;99.90;;;-0.82;100.00;100185.34;5016199;28;20462;-71
2023/12/17 06:46:41;;;;;;;25.63;17.47;;;0.20;99.90;;;-0.76;100.00;100186.78;5018550;28;20563;-69
2023/12/17 06:49:08;;;;;;;26.20;16.90;;;0.20;99.90;;;-0.70;100.00;100183.75;5025072;28;20517;-70
2023/12/17 06:51:39;;;;;;;26.37;15.63;;;0.20;99.90;;;-0.73;100.00;100183.94;5002687;28;20964;-71
2023/12/17 06:54:07;;;;;;;22.90;15.93;;;0.20;99.90;;;-0.84;100.00;100183.72;5018149;28;20575;-71
2023/12/17 06:56:34;;;;;;;26.33;15.97;;;0.10;99.90;;;-0.94;100.00;100176.28;5019678;28;20460;-72
2023/12/17 06:59:03;;;;;;;28.17;17.47;;;0.10;99.90;;;-0.72;100.00;100183.00;5021210;28;20518;-72
2023/12/17 07:01:31;;;;;;;26.10;17.07;;;0.10;99.90;;;-0.71;100.00;100179.41;5020552;28;20461;-71
2023/12/17 07:03:58;;;;;;;22.80;16.57;;;0.10;99.90;;;-0.73;100.00;100178.63;5023123;28;20480;-70
2023/12/17 07:06:26;;;;;;;22.13;16.10;;;0.10;99.90;;;-1.23;100.00;100116.91;5013459;28;20467;-70
2023/12/17 07:08:53;;;;;;;24.97;16.27;;;0.10;99.90;;;-0.68;100.00;100187.19;5006519;28;20516;-70
2023/12/17 07:11:21;;;;;;;27.47;17.50;;;0.10;99.90;;;-0.73;100.00;100190.13;5006984;28;20456;-69
2023/12/17 07:13:49;;;;;;;22.20;15.97;;;0.10;99.90;;;-0.75;100.00;100194.66;5017149;28;20526;-71
2023/12/17 07:16:47;;;;;;;20.90;15.37;;;0.10;99.90;;;-0.77;100.00;100195.69;5017570;28;20454;-70
2023/12/17 07:19:15;;;;;;;27.90;15.87;;;0.00;99.90;;;-0.75;100.00;100191.16;5005151;28;20805;-71
2023/12/17 07:21:43;;;;;;;19.47;13.63;;;0.00;99.90;;;-0.87;100.00;100172.31;5018989;28;20465;-71
2023/12/17 07:24:10;;;;;;;24.90;15.30;;;0.00;99.90;;;-0.69;100.00;100193.44;5016552;28;20481;-72
2023/12/17 07:26:38;;;;;;;25.73;15.60;;;0.10;99.90;;;-0.72;100.00;100177.69;5005127;28;21166;-69
2023/12/17 07:29:05;;;;;;;24.97;14.93;;;0.00;99.90;;;-0.68;100.00;100179.25;5010787;28;20470;-69
2023/12/17 07:31:33;;;;;;;25.83;16.17;;;0.10;99.90;;;-0.62;100.00;100191.28;5017416;28;20452;-71
2023/12/17 07:34:01;;;;;;;24.10;16.27;;;0.10;99.90;;;-0.54;100.00;100188.16;5014770;28;20481;-70
2023/12/17 07:36:29;;;;;;;24.70;14.77;;;0.20;99.90;;;-0.53;100.00;100192.53;5023309;28;20451;-70
2023/12/17 07:38:56;;;;;;;24.27;16.23;;;0.20;99.90;;;-0.61;100.00;100196.50;5009045;28;20608;-69
2023/12/17 07:41:24;;;;;;;23.63;15.73;;;0.30;99.90;;;-0.58;100.00;100188.34;5015452;28;20480;-69
2023/12/17 07:43:52;;;;;;;23.23;16.13;;;0.30;99.90;;;-0.43;100.00;100191.03;4999802;28;20456;-70
2023/12/17 07:46:20;;;;;;;24.10;14.20;;;0.30;99.90;;;-0.44;100.00;100184.91;5020442;28;20576;-70
2023/12/17 07:48:47;;;;;;;19.13;14.10;;;0.30;99.90;;;-0.31;100.00;100177.03;5006252;28;20458;-71
2023/12/17 07:51:16;;;;;;;20.80;14.53;;;0.40;99.90;;;-0.22;100.00;100166.81;5021892;28;20543;-68
2023/12/17 07:53:43;;;;;;;22.67;15.63;;;0.50;99.90;;;-0.34;100.00;100166.59;5005307;28;20462;-69
2023/12/17 07:56:11;;;;;;;23.23;15.73;;;0.50;99.90;;;-0.19;100.00;100163.97;5010471;28;20461;-70
2023/12/17 07:58:39;;;;;;;21.00;14.70;;;0.60;99.90;;;-0.11;100.00;100169.66;5005544;28;20907;-69
2023/12/17 08:01:09;;;;;;;22.83;15.40;;;0.70;99.90;;;-0.21;100.00;100171.19;5019586;28;20588;-69
2023/12/17 08:03:36;;;;;;;22.43;14.60;;;0.70;99.90;;;-0.01;100.00;100173.47;5018338;28;20475;-70
2023/12/17 08:06:04;;;;;;;21.93;14.63;;;0.80;99.90;;;0.12;100.00;100180.69;5020244;28;20518;-71
2023/12/17 08:08:33;;;;;;;22.80;15.37;;;0.90;99.30;;;-0.03;100.00;100174.50;5021290;28;20526;-68
2023/12/17 08:11:00;;;;;;;21.00;14.90;;;0.90;97.90;;;0.27;100.00;100181.50;5001990;28;20467;-68
2023/12/17 08:13:27;;;;;;;22.60;14.37;;;1.00;97.60;;;0.31;100.00;100179.53;5000725;28;20464;-69
2023/12/17 08:15:55;;;;;;;20.83;14.47;;;1.10;97.50;;;0.35;100.00;100173.06;5021299;28;20455;-70
2023/12/17 08:18:23;;;;;;;28.73;14.47;;;1.10;97.30;;;0.30;100.00;100161.88;5014673;28;21435;-69
2023/12/17 08:20:51;;;;;;;20.20;13.77;;;1.10;96.50;;;0.27;100.00;100184.19;5017752;28;20474;-69
2023/12/17 08:23:20;;;;;;;19.73;13.20;;;1.20;95.60;;;0.26;100.00;100188.66;5021306;28;20528;-70
2023/12/17 08:25:48;;;;;;;22.37;14.03;;;1.20;95.20;;;0.30;100.00;100185.78;5002662;28;20450;-69
2023/12/17 08:28:19;;;;;;;17.10;13.83;;;1.20;95.20;;;0.45;100.00;100190.16;5002095;28;20557;-69
2023/12/17 08:30:46;;;;;;;18.50;14.30;;;1.30;95.10;;;0.57;99.66;100185.84;5007894;28;20515;-70
2023/12/17 08:33:15;;;;;;;25.00;15.07;;;1.40;95.10;;;0.74;99.17;100192.75;5001135;28;20487;-76
2023/12/17 08:35:45;;;;;;;26.43;14.50;;;1.50;95.00;;;0.68;98.50;100194.00;4997756;28;20894;-70
2023/12/17 08:38:13;;;;;;;21.47;14.17;;;1.50;94.20;;;0.75;98.43;100199.78;5000698;28;20511;-69
2023/12/17 08:40:42;;;;;;;18.10;13.57;;;1.50;94.00;;;0.88;98.11;100204.34;5002855;28;20728;-67
2023/12/17 08:43:10;;;;;;;15.97;13.73;;;1.60;93.60;;;0.97;97.97;100211.69;5019214;28;20828;-70
2023/12/17 08:45:38;;;;;;;17.37;13.57;;;1.70;93.30;;;1.07;97.37;100204.84;4996959;28;21202;-67
2023/12/17 08:48:06;;;;;;;22.10;13.87;;;1.80;93.20;;;1.16;96.75;100203.38;5000639;28;20527;-68
2023/12/17 08:50:33;;;;;;;19.53;14.03;;;1.90;93.10;;;1.24;96.22;100194.88;5021956;28;20529;-68
2023/12/17 08:53:00;;;;;;;16.70;12.17;;;2.00;92.60;;;1.13;95.46;100191.09;5018688;28;20519;-67
2023/12/17 08:55:28;;;;;;;15.13;12.70;;;2.00;91.50;;;1.11;95.81;100198.34;5028267;28;20465;-69
2023/12/17 08:57:57;;;;;;;15.80;12.87;;;2.00;91.40;;;1.29;95.75;100203.44;5020081;28;21424;-82
2023/12/17 09:00:25;;;;;;;17.80;13.10;;;2.00;91.70;;;1.30;95.20;100198.94;5009561;28;20456;-84
2023/12/17 09:02:52;;;;;;;17.93;12.63;;;2.10;91.50;;;1.36;95.06;100182.53;5004486;28;20586;-78
2023/12/17 09:05:20;;;;;;;20.17;13.90;;;2.10;91.50;;;1.24;94.12;100200.19;5020467;28;20465;-78
2023/12/17 09:07:50;;;;;;;15.87;13.63;;;2.10;91.00;;;1.19;95.02;100186.34;5013998;28;20462;-78
2023/12/17 09:10:19;;;;;;;16.07;12.00;;;2.10;91.00;;;1.46;94.92;100188.13;5002431;28;20465;-78
2023/12/17 09:12:46;;;;;;;18.20;13.60;;;2.20;91.00;;;1.34;94.41;100176.47;5020652;28;20471;-77
2023/12/17 09:15:14;;;;;;;23.47;14.10;;;2.30;90.70;;;1.36;94.88;100183.41;5028780;28;20517;-76
2023/12/17 09:17:43;;;;;;;20.90;13.40;;;2.30;90.70;;;1.64;93.84;100208.19;5016839;28;20476;-73
2023/12/17 09:20:11;;;;;;;17.00;12.73;;;2.40;90.70;;;1.41;94.04;100154.63;5001133;28;20459;-72
2023/12/17 09:22:39;;;;;;;19.53;14.90;;;2.50;90.50;;;1.75;93.78;100206.63;5016618;28;20459;-71
2023/12/17 09:25:08;;;;;;;21.30;15.40;;;2.50;90.30;;;1.88;93.35;100204.78;5018085;28;20559;-71
2023/12/17 09:27:35;;;;;;;17.50;13.10;;;2.60;90.40;;;1.72;93.80;100206.81;5019866;28;20484;-79
2023/12/17 09:30:04;;;;;;;21.43;14.87;;;2.60;90.00;;;1.87;93.79;100213.75;5023072;28;20566;-70
2023/12/17 09:32:31;;;;;;;21.50;14.47;;;2.70;90.30;;;2.12;92.97;100201.38;5018269;28;20956;-71
2023/12/17 09:34:59;;;;;;;18.60;13.90;;;2.80;90.40;;;2.23;91.56;100208.63;5003599;28;20529;-73
2023/12/17 09:37:28;;;;;;;20.03;13.90;;;2.90;90.00;;;2.19;91.32;100210.66;5016288;28;20503;-73
2023/12/17 09:39:55;;;;;;;18.33;14.23;;;3.00;88.80;;;2.15;92.01;100200.34;5023187;28;20973;-72
2023/12/17 09:42:24;;;;;;;18.43;15.00;;;3.10;88.30;;;2.35;91.96;100193.56;4997735;28;20527;-71
2023/12/17 09:44:51;;;;;;;19.17;14.50;;;3.20;88.80;;;2.29;91.20;100194.00;5021045;28;20469;-71
2023/12/17 09:47:18;;;;;;;22.93;15.50;;;3.20;88.10;;;2.32;91.67;100191.13;5003139;28;20454;-71
2023/12/17 09:49:46;;;;;;;21.70;14.23;;;3.20;87.90;;;2.38;91.26;100186.22;5006948;28;21163;-72
2023/12/17 09:52:19;;;;;;;18.27;12.50;;;3.30;87.90;;;2.54;91.22;100191.31;5020462;28;20457;-73
2023/12/17 09:54:49;;;;;;;15.83;14.10;;;3.40;87.80;;;2.77;90.68;100187.94;5019085;28;20488;-72
2023/12/17 09:57:17;;;;;;;16.90;14.20;;;3.50;87.60;;;2.88;90.07;100182.69;5008621;28;20453;-72
2023/12/17 09:59:46;;;;;;;17.50;12.97;;;3.60;87.20;;;2.99;88.55;100179.22;4988792;28;20468;-73
2023/12/17 10:02:15;;;;;;;18.70;12.93;;;3.70;87.10;;;3.30;87.67;100176.91;5015279;28;20476;-73
2023/12/17 10:04:43;;;;;;;19.17;13.70;;;3.90;86.80;;;3.33;87.18;100170.47;4996403;28;20474;-73
2023/12/17 10:07:11;;;;;;;20.60;14.17;;;4.00;86.00;;;3.45;86.81;100152.69;5007145;28;20973;-73